Ns Clipper — A8GW6 — position and weather

sailwx.info

Track history (hours):
 
Tides and Currents Weather Stations Pressure Air Temp Water Temp Dewpoint Dewpoint Depression Visibility Wind Speed Wind Dir Waves Ship Positions

Ns Clipper

Last reported at 2015-May-13 03:33 UTC. Time now 2015-May-24 07:12 UTC.
Position N 38°29' W 074°45'.
Warning: this ship's position is 11 days out of date.

Length 243 m; draft 7.8 m.

Type: Tanker. MMSI: 636012661.

Date/timePositionNaut miles runAvg speedWind from/ knotsBaromVisibWave heightAir tempDewpointWater temp
2015-May-13 03:33N 38°29' W 074°45'1413.6
2015-May-13 02:33N 38°40' W 074°55'1413.6
2015-May-13 01:33N 38°51' W 075°04'1514.8
2015-May-13 00:33N 39°05' W 075°11'1414.1
2015-May-12 23:34N 39°17' W 075°21'1212.4
2015-May-12 22:34N 39°26' W 075°32'9 8.6
2015-May-12 21:34N 39°34' W 075°34'1 1.2
2015-May-12 20:32N 39°35' W 075°35'0 0.0
2015-May-12 19:32N 39°35' W 075°35'0 0.0
2015-May-12 18:32N 39°35' W 075°35'0 0.0
2015-May-12 17:32N 39°35' W 075°35'0 0.0
2015-May-12 16:32N 39°35' W 075°35'0 0.0
2015-May-12 15:32N 39°35' W 075°35'0 0.0
2015-May-12 14:32N 39°35' W 075°35'0 0.0
2015-May-12 13:32N 39°35' W 075°35'0 0.0
2015-May-12 12:32N 39°35' W 075°35'0 0.0
2015-May-12 11:32N 39°35' W 075°35'0 0.0
2015-May-12 10:32N 39°35' W 075°35'0 0.0
2015-May-12 09:32N 39°35' W 075°35'0 0.0
2015-May-12 08:32N 39°35' W 075°35'0 0.0
2015-May-12 07:32N 39°35' W 075°35'0 0.0
2015-May-12 06:32N 39°35' W 075°35'0 0.0
2015-May-12 05:32N 39°35' W 075°35'0 0.0
2015-May-12 04:32N 39°35' W 075°35'0 0.0
2015-May-12 03:29N 39°35' W 075°35'0 0.0
2015-May-12 02:32N 39°35' W 075°35'0 0.0
2015-May-12 01:32N 39°35' W 075°35'0 0.0
2015-May-12 00:32N 39°35' W 075°35'1 1.5
2015-May-11 23:34N 39°34' W 075°34'4 3.8
2015-May-11 22:34N 39°38' W 075°34'9 7.9
2015-May-11 21:23N 39°46' W 075°28'6 7.1
2015-May-11 20:33N 39°50' W 075°22'5 4.7
2015-May-11 19:30N 39°51' W 075°16'0 0.0
2015-May-11 18:33N 39°51' W 075°16'0 0.0
2015-May-11 17:33N 39°51' W 075°16'0 0.0
2015-May-11 16:33N 39°51' W 075°16'0 0.0
2015-May-11 15:33N 39°51' W 075°16'0 0.0
2015-May-11 14:33N 39°51' W 075°16'0 0.0
2015-May-11 13:33N 39°51' W 075°16'0 0.0
2015-May-11 12:33N 39°51' W 075°16'0 0.0
2015-May-11 11:33N 39°51' W 075°16'0 0.0
2015-May-11 10:33N 39°51' W 075°16'0 0.0
2015-May-11 09:33N 39°51' W 075°16'0 0.0
2015-May-11 08:33N 39°51' W 075°16'0 0.0
2015-May-11 07:33N 39°51' W 075°16'0 0.0
2015-May-11 06:33N 39°51' W 075°16'0 0.0
2015-May-11 05:33N 39°51' W 075°16'0 0.0
2015-May-11 04:33N 39°51' W 075°16'0 0.0
2015-May-11 03:33N 39°51' W 075°16'0 0.0
2015-May-11 02:33N 39°51' W 075°16'0 0.0
2015-May-11 01:34N 39°51' W 075°16'4 3.6
2015-May-11 00:34N 39°51' W 075°21'8 8.1
2015-May-10 23:34N 39°45' W 075°29'10 9.9
2015-May-10 22:34N 39°36' W 075°34'1010.1
2015-May-10 21:34N 39°26' W 075°33'1212.4
2015-May-10 20:34N 39°17' W 075°22'1212.0
2015-May-10 19:34N 39°07' W 075°13'1211.9
2015-May-10 18:33N 38°57' W 075°06'1111.3
2015-May-10 17:34N 38°46' W 075°01'8 8.3
2015-May-10 16:34N 38°41' W 074°52'10 1.2
2015-May-10 08:18N 38°34' W 074°43'2 0.1
2015-May-09 11:33N 38°32' W 074°42'8 8.2
2015-May-09 10:31N 38°24' W 074°38'1110.5
2015-May-09 09:30N 38°14' W 074°33'1111.5
2015-May-09 08:30N 38°03' W 074°27'1611.9
2015-May-09 07:10N 37°49' W 074°20'1212.0
2015-May-09 06:10N 37°38' W 074°14'  
2015-May-06 11:24N 26°13' W 079°25'1314.9
2015-May-06 10:33N 26°00' W 079°26'  
Track history (hours):
 
Tides and Currents Weather Stations Pressure Air Temp Water Temp Dewpoint Dewpoint Depression Visibility Wind Speed Wind Dir Waves Ship Positions

Ns Clipper

Last reported at 2015-May-13 03:33 UTC. Time now 2015-May-24 07:12 UTC.
Position N 38°29' W 074°45'.
Warning: this ship's position is 11 days out of date.

Length 243 m; draft 7.8 m.

Type: Tanker. MMSI: 636012661.

Date/timePositionNaut miles runAvg speedWind from/ knotsBaromVisibWave heightAir tempDewpointWater temp
2015-May-13 03:33N 38°29' W 074°45'1413.6
2015-May-13 02:33N 38°40' W 074°55'1413.6
2015-May-13 01:33N 38°51' W 075°04'1514.8
2015-May-13 00:33N 39°05' W 075°11'1414.1
2015-May-12 23:34N 39°17' W 075°21'1212.4
2015-May-12 22:34N 39°26' W 075°32'9 8.6
2015-May-12 21:34N 39°34' W 075°34'1 1.2
2015-May-12 20:32N 39°35' W 075°35'0 0.0
2015-May-12 19:32N 39°35' W 075°35'0 0.0
2015-May-12 18:32N 39°35' W 075°35'0 0.0
2015-May-12 17:32N 39°35' W 075°35'0 0.0
2015-May-12 16:32N 39°35' W 075°35'0 0.0
2015-May-12 15:32N 39°35' W 075°35'0 0.0
2015-May-12 14:32N 39°35' W 075°35'0 0.0
2015-May-12 13:32N 39°35' W 075°35'0 0.0
2015-May-12 12:32N 39°35' W 075°35'0 0.0
2015-May-12 11:32N 39°35' W 075°35'0 0.0
2015-May-12 10:32N 39°35' W 075°35'0 0.0
2015-May-12 09:32N 39°35' W 075°35'0 0.0
2015-May-12 08:32N 39°35' W 075°35'0 0.0
2015-May-12 07:32N 39°35' W 075°35'0 0.0
2015-May-12 06:32N 39°35' W 075°35'0 0.0
2015-May-12 05:32N 39°35' W 075°35'0 0.0
2015-May-12 04:32N 39°35' W 075°35'0 0.0
2015-May-12 03:29N 39°35' W 075°35'0 0.0
2015-May-12 02:32N 39°35' W 075°35'0 0.0
2015-May-12 01:32N 39°35' W 075°35'0 0.0
2015-May-12 00:32N 39°35' W 075°35'1 1.5
2015-May-11 23:34N 39°34' W 075°34'4 3.8
2015-May-11 22:34N 39°38' W 075°34'9 7.9
2015-May-11 21:23N 39°46' W 075°28'6 7.1
2015-May-11 20:33N 39°50' W 075°22'5 4.7
2015-May-11 19:30N 39°51' W 075°16'0 0.0
2015-May-11 18:33N 39°51' W 075°16'0 0.0
2015-May-11 17:33N 39°51' W 075°16'0 0.0
2015-May-11 16:33N 39°51' W 075°16'0 0.0
2015-May-11 15:33N 39°51' W 075°16'0 0.0
2015-May-11 14:33N 39°51' W 075°16'0 0.0
2015-May-11 13:33N 39°51' W 075°16'0 0.0
2015-May-11 12:33N 39°51' W 075°16'0 0.0
2015-May-11 11:33N 39°51' W 075°16'0 0.0
2015-May-11 10:33N 39°51' W 075°16'0 0.0
2015-May-11 09:33N 39°51' W 075°16'0 0.0
2015-May-11 08:33N 39°51' W 075°16'0 0.0
2015-May-11 07:33N 39°51' W 075°16'0 0.0
2015-May-11 06:33N 39°51' W 075°16'0 0.0
2015-May-11 05:33N 39°51' W 075°16'0 0.0
2015-May-11 04:33N 39°51' W 075°16'0 0.0
2015-May-11 03:33N 39°51' W 075°16'0 0.0
2015-May-11 02:33N 39°51' W 075°16'0 0.0
2015-May-11 01:34N 39°51' W 075°16'4 3.6
2015-May-11 00:34N 39°51' W 075°21'8 8.1
2015-May-10 23:34N 39°45' W 075°29'10 9.9
2015-May-10 22:34N 39°36' W 075°34'1010.1
2015-May-10 21:34N 39°26' W 075°33'1212.4
2015-May-10 20:34N 39°17' W 075°22'1212.0
2015-May-10 19:34N 39°07' W 075°13'1211.9
2015-May-10 18:33N 38°57' W 075°06'1111.3
2015-May-10 17:34N 38°46' W 075°01'8 8.3
2015-May-10 16:34N 38°41' W 074°52'10 1.2
2015-May-10 08:18N 38°34' W 074°43'2 0.1
2015-May-09 11:33N 38°32' W 074°42'8 8.2
2015-May-09 10:31N 38°24' W 074°38'1110.5
2015-May-09 09:30N 38°14' W 074°33'1111.5
2015-May-09 08:30N 38°03' W 074°27'1611.9
2015-May-09 07:10N 37°49' W 074°20'1212.0
2015-May-09 06:10N 37°38' W 074°14'  
2015-May-06 11:24N 26°13' W 079°25'1314.9
2015-May-06 10:33N 26°00' W 079°26'  

Dump ship's entire track history